sensor_id;sensor_type;location;lat;lon;timestamp;temperature;humidity
24260;DHT22;12384;48.112;18.418;2022-12-18T00:00:06;-2.90;90.90
24260;DHT22;12384;48.112;18.418;2022-12-18T00:02:40;-2.90;90.90
24260;DHT22;12384;48.112;18.418;2022-12-18T00:05:09;-2.90;91.00
24260;DHT22;12384;48.112;18.418;2022-12-18T00:07:37;-2.90;91.10
24260;DHT22;12384;48.112;18.418;2022-12-18T00:10:06;-2.90;91.10
24260;DHT22;12384;48.112;18.418;2022-12-18T00:12:35;-2.90;91.20
24260;DHT22;12384;48.112;18.418;2022-12-18T00:15:04;-3.00;91.20
24260;DHT22;12384;48.112;18.418;2022-12-18T00:17:32;-3.00;91.20
24260;DHT22;12384;48.112;18.418;2022-12-18T00:20:02;-3.00;91.30
24260;DHT22;12384;48.112;18.418;2022-12-18T00:22:30;-3.00;91.40
24260;DHT22;12384;48.112;18.418;2022-12-18T00:24:59;-3.00;91.40
24260;DHT22;12384;48.112;18.418;2022-12-18T00:27:27;-3.10;91.50
24260;DHT22;12384;48.112;18.418;2022-12-18T00:29:55;-3.10;91.60
24260;DHT22;12384;48.112;18.418;2022-12-18T00:32:24;-3.10;91.70
24260;DHT22;12384;48.112;18.418;2022-12-18T00:34:52;-3.10;91.80
24260;DHT22;12384;48.112;18.418;2022-12-18T00:37:22;-3.10;91.90
24260;DHT22;12384;48.112;18.418;2022-12-18T00:39:50;-3.10;92.10
24260;DHT22;12384;48.112;18.418;2022-12-18T00:42:19;-3.10;92.20
24260;DHT22;12384;48.112;18.418;2022-12-18T00:45:06;-3.20;92.20
24260;DHT22;12384;48.112;18.418;2022-12-18T00:47:39;-3.20;92.30
24260;DHT22;12384;48.112;18.418;2022-12-18T00:50:09;-3.20;92.40
24260;DHT22;12384;48.112;18.418;2022-12-18T00:52:40;-3.20;92.40
24260;DHT22;12384;48.112;18.418;2022-12-18T00:55:08;-3.20;92.50
24260;DHT22;12384;48.112;18.418;2022-12-18T00:57:37;-3.20;92.50
24260;DHT22;12384;48.112;18.418;2022-12-18T01:00:08;-3.20;92.50
24260;DHT22;12384;48.112;18.418;2022-12-18T01:02:36;-3.20;92.50
24260;DHT22;12384;48.112;18.418;2022-12-18T01:05:08;-3.20;92.50
24260;DHT22;12384;48.112;18.418;2022-12-18T01:07:38;-3.30;92.40
24260;DHT22;12384;48.112;18.418;2022-12-18T01:10:08;-3.30;92.40
24260;DHT22;12384;48.112;18.418;2022-12-18T01:12:37;-3.30;92.40
24260;DHT22;12384;48.112;18.418;2022-12-18T01:15:07;-3.30;92.50
24260;DHT22;12384;48.112;18.418;2022-12-18T01:17:36;-3.30;92.50
24260;DHT22;12384;48.112;18.418;2022-12-18T01:20:05;-3.30;92.50
24260;DHT22;12384;48.112;18.418;2022-12-18T01:22:34;-3.40;92.50
24260;DHT22;12384;48.112;18.418;2022-12-18T01:25:04;-3.40;92.50
24260;DHT22;12384;48.112;18.418;2022-12-18T01:27:33;-3.40;92.60
24260;DHT22;12384;48.112;18.418;2022-12-18T01:30:03;-3.40;92.60
24260;DHT22;12384;48.112;18.418;2022-12-18T01:32:32;-3.40;92.70
24260;DHT22;12384;48.112;18.418;2022-12-18T01:35:02;-3.40;92.70
24260;DHT22;12384;48.112;18.418;2022-12-18T01:37:30;-3.40;92.80
24260;DHT22;12384;48.112;18.418;2022-12-18T01:39:59;-3.40;92.80
24260;DHT22;12384;48.112;18.418;2022-12-18T01:42:28;-3.50;92.80
24260;DHT22;12384;48.112;18.418;2022-12-18T01:45:00;-3.50;92.80
24260;DHT22;12384;48.112;18.418;2022-12-18T01:47:33;-3.50;93.00
24260;DHT22;12384;48.112;18.418;2022-12-18T01:50:07;-3.50;92.50
24260;DHT22;12384;48.112;18.418;2022-12-18T01:52:37;-3.50;92.30
24260;DHT22;12384;48.112;18.418;2022-12-18T01:55:07;-3.60;92.20
24260;DHT22;12384;48.112;18.418;2022-12-18T01:57:37;-3.60;92.10
24260;DHT22;12384;48.112;18.418;2022-12-18T02:00:08;-3.70;92.00
24260;DHT22;12384;48.112;18.418;2022-12-18T02:02:41;-3.70;92.00
24260;DHT22;12384;48.112;18.418;2022-12-18T02:05:15;-3.70;92.00
24260;DHT22;12384;48.112;18.418;2022-12-18T02:07:52;-3.80;91.90
24260;DHT22;12384;48.112;18.418;2022-12-18T02:10:27;-3.80;91.80
24260;DHT22;12384;48.112;18.418;2022-12-18T02:13:06;-3.90;91.70
24260;DHT22;12384;48.112;18.418;2022-12-18T02:15:38;-3.90;91.70
24260;DHT22;12384;48.112;18.418;2022-12-18T02:18:10;-3.90;91.90
24260;DHT22;12384;48.112;18.418;2022-12-18T02:20:43;-3.90;92.10
24260;DHT22;12384;48.112;18.418;2022-12-18T02:23:22;-4.00;92.20
24260;DHT22;12384;48.112;18.418;2022-12-18T02:26:14;-4.00;92.40
24260;DHT22;12384;48.112;18.418;2022-12-18T02:28:47;-4.00;92.60
24260;DHT22;12384;48.112;18.418;2022-12-18T02:31:22;-4.00;92.80
24260;DHT22;12384;48.112;18.418;2022-12-18T02:33:54;-4.00;92.90
24260;DHT22;12384;48.112;18.418;2022-12-18T02:36:25;-4.00;93.00
24260;DHT22;12384;48.112;18.418;2022-12-18T02:38:56;-4.00;93.00
24260;DHT22;12384;48.112;18.418;2022-12-18T02:41:28;-4.00;92.90
24260;DHT22;12384;48.112;18.418;2022-12-18T02:44:01;-4.00;92.80
24260;DHT22;12384;48.112;18.418;2022-12-18T02:46:36;-4.00;92.80
24260;DHT22;12384;48.112;18.418;2022-12-18T02:49:21;-4.10;92.90
24260;DHT22;12384;48.112;18.418;2022-12-18T02:51:55;-4.10;93.00
24260;DHT22;12384;48.112;18.418;2022-12-18T02:54:36;-4.10;93.00
24260;DHT22;12384;48.112;18.418;2022-12-18T02:57:16;-4.10;93.10
24260;DHT22;12384;48.112;18.418;2022-12-18T02:59:53;-4.10;93.20
24260;DHT22;12384;48.112;18.418;2022-12-18T03:02:29;-4.10;93.40
24260;DHT22;12384;48.112;18.418;2022-12-18T03:05:03;-4.10;93.40
24260;DHT22;12384;48.112;18.418;2022-12-18T03:07:37;-4.10;93.50
24260;DHT22;12384;48.112;18.418;2022-12-18T03:10:13;-4.10;93.60
24260;DHT22;12384;48.112;18.418;2022-12-18T03:12:49;-4.10;93.70
24260;DHT22;12384;48.112;18.418;2022-12-18T03:15:24;-4.10;93.70
24260;DHT22;12384;48.112;18.418;2022-12-18T03:18:02;-4.10;93.80
24260;DHT22;12384;48.112;18.418;2022-12-18T03:20:34;-4.10;93.80
24260;DHT22;12384;48.112;18.418;2022-12-18T03:23:09;-4.10;93.80
24260;DHT22;12384;48.112;18.418;2022-12-18T03:25:40;-4.10;93.90
24260;DHT22;12384;48.112;18.418;2022-12-18T03:28:14;-4.00;94.10
24260;DHT22;12384;48.112;18.418;2022-12-18T03:30:45;-4.10;94.10
24260;DHT22;12384;48.112;18.418;2022-12-18T03:33:17;-4.00;94.20
24260;DHT22;12384;48.112;18.418;2022-12-18T03:35:49;-4.10;94.20
24260;DHT22;12384;48.112;18.418;2022-12-18T03:38:18;-4.00;94.20
24260;DHT22;12384;48.112;18.418;2022-12-18T03:40:56;-4.00;94.20
24260;DHT22;12384;48.112;18.418;2022-12-18T03:43:36;-4.10;94.10
24260;DHT22;12384;48.112;18.418;2022-12-18T03:46:14;-4.00;94.10
24260;DHT22;12384;48.112;18.418;2022-12-18T03:48:46;-4.10;94.00
24260;DHT22;12384;48.112;18.418;2022-12-18T03:51:23;-4.10;94.10
24260;DHT22;12384;48.112;18.418;2022-12-18T03:53:57;-4.10;94.20
24260;DHT22;12384;48.112;18.418;2022-12-18T03:56:35;-4.10;94.30
24260;DHT22;12384;48.112;18.418;2022-12-18T03:59:08;-4.10;94.30
24260;DHT22;12384;48.112;18.418;2022-12-18T04:01:42;-4.10;94.20
24260;DHT22;12384;48.112;18.418;2022-12-18T04:04:15;-4.10;94.10
24260;DHT22;12384;48.112;18.418;2022-12-18T04:06:47;-4.10;93.90
24260;DHT22;12384;48.112;18.418;2022-12-18T04:09:18;-4.10;93.70
24260;DHT22;12384;48.112;18.418;2022-12-18T04:11:48;-4.20;93.60
24260;DHT22;12384;48.112;18.418;2022-12-18T04:14:18;-4.20;93.50
24260;DHT22;12384;48.112;18.418;2022-12-18T04:16:51;-4.20;93.40
24260;DHT22;12384;48.112;18.418;2022-12-18T04:19:24;-4.20;93.30
24260;DHT22;12384;48.112;18.418;2022-12-18T04:21:55;-4.30;93.20
24260;DHT22;12384;48.112;18.418;2022-12-18T04:24:24;-4.30;93.10
24260;DHT22;12384;48.112;18.418;2022-12-18T04:27:03;-4.30;93.20
24260;DHT22;12384;48.112;18.418;2022-12-18T04:29:40;-4.40;93.20
24260;DHT22;12384;48.112;18.418;2022-12-18T04:32:09;-4.40;93.20
24260;DHT22;12384;48.112;18.418;2022-12-18T04:34:39;-4.40;93.30
24260;DHT22;12384;48.112;18.418;2022-12-18T04:37:07;-4.40;93.20
24260;DHT22;12384;48.112;18.418;2022-12-18T04:39:36;-4.40;93.20
24260;DHT22;12384;48.112;18.418;2022-12-18T04:42:12;-4.50;93.00
24260;DHT22;12384;48.112;18.418;2022-12-18T04:44:41;-4.50;92.90
24260;DHT22;12384;48.112;18.418;2022-12-18T04:47:10;-4.50;92.80
24260;DHT22;12384;48.112;18.418;2022-12-18T04:49:38;-4.60;92.80
24260;DHT22;12384;48.112;18.418;2022-12-18T04:52:08;-4.60;92.70
24260;DHT22;12384;48.112;18.418;2022-12-18T04:54:36;-4.60;92.60
24260;DHT22;12384;48.112;18.418;2022-12-18T04:57:05;-4.70;92.60
24260;DHT22;12384;48.112;18.418;2022-12-18T04:59:33;-4.70;92.90
24260;DHT22;12384;48.112;18.418;2022-12-18T05:02:03;-4.70;93.00
24260;DHT22;12384;48.112;18.418;2022-12-18T05:04:31;-4.70;93.60
24260;DHT22;12384;48.112;18.418;2022-12-18T05:07:00;-4.70;93.40
24260;DHT22;12384;48.112;18.418;2022-12-18T05:09:28;-4.70;93.50
24260;DHT22;12384;48.112;18.418;2022-12-18T05:11:56;-4.70;93.50
24260;DHT22;12384;48.112;18.418;2022-12-18T05:14:25;-4.70;93.50
24260;DHT22;12384;48.112;18.418;2022-12-18T05:16:54;-4.70;93.50
24260;DHT22;12384;48.112;18.418;2022-12-18T05:19:28;-4.80;93.40
24260;DHT22;12384;48.112;18.418;2022-12-18T05:21:56;-4.80;93.40
24260;DHT22;12384;48.112;18.418;2022-12-18T05:24:25;-4.80;93.40
24260;DHT22;12384;48.112;18.418;2022-12-18T05:26:53;-4.90;93.30
24260;DHT22;12384;48.112;18.418;2022-12-18T05:29:22;-4.90;93.20
24260;DHT22;12384;48.112;18.418;2022-12-18T05:31:50;-4.90;93.30
24260;DHT22;12384;48.112;18.418;2022-12-18T05:34:19;-4.90;93.70
24260;DHT22;12384;48.112;18.418;2022-12-18T05:36:49;-4.90;93.60
24260;DHT22;12384;48.112;18.418;2022-12-18T05:39:17;-4.90;93.30
24260;DHT22;12384;48.112;18.418;2022-12-18T05:41:45;-4.90;93.10
24260;DHT22;12384;48.112;18.418;2022-12-18T05:44:14;-5.00;92.90
24260;DHT22;12384;48.112;18.418;2022-12-18T05:46:42;-5.00;92.80
24260;DHT22;12384;48.112;18.418;2022-12-18T05:49:10;-5.10;92.60
24260;DHT22;12384;48.112;18.418;2022-12-18T05:51:39;-5.10;92.60
24260;DHT22;12384;48.112;18.418;2022-12-18T05:54:09;-5.10;92.60
24260;DHT22;12384;48.112;18.418;2022-12-18T05:56:38;-5.10;92.60
24260;DHT22;12384;48.112;18.418;2022-12-18T05:59:14;-5.20;92.60
24260;DHT22;12384;48.112;18.418;2022-12-18T06:01:42;-5.20;92.50
24260;DHT22;12384;48.112;18.418;2022-12-18T06:04:11;-5.20;92.50
24260;DHT22;12384;48.112;18.418;2022-12-18T06:06:40;-5.30;92.70
24260;DHT22;12384;48.112;18.418;2022-12-18T06:09:09;-5.30;92.80
24260;DHT22;12384;48.112;18.418;2022-12-18T06:11:38;-5.30;93.00
24260;DHT22;12384;48.112;18.418;2022-12-18T06:14:08;-5.30;93.10
24260;DHT22;12384;48.112;18.418;2022-12-18T06:16:37;-5.30;93.20
24260;DHT22;12384;48.112;18.418;2022-12-18T06:19:06;-5.30;93.30
24260;DHT22;12384;48.112;18.418;2022-12-18T06:21:34;-5.30;93.40
24260;DHT22;12384;48.112;18.418;2022-12-18T06:24:03;-5.30;93.40
24260;DHT22;12384;48.112;18.418;2022-12-18T06:26:33;-5.40;93.50
24260;DHT22;12384;48.112;18.418;2022-12-18T06:29:01;-5.40;93.60
24260;DHT22;12384;48.112;18.418;2022-12-18T06:31:30;-5.40;93.60
24260;DHT22;12384;48.112;18.418;2022-12-18T06:33:58;-5.40;93.70
24260;DHT22;12384;48.112;18.418;2022-12-18T06:36:27;-5.40;93.90
24260;DHT22;12384;48.112;18.418;2022-12-18T06:38:56;-5.30;94.10
24260;DHT22;12384;48.112;18.418;2022-12-18T06:41:25;-5.30;94.10
24260;DHT22;12384;48.112;18.418;2022-12-18T06:43:55;-5.30;94.30
24260;DHT22;12384;48.112;18.418;2022-12-18T06:46:26;-5.30;94.50
24260;DHT22;12384;48.112;18.418;2022-12-18T06:48:54;-5.30;94.60
24260;DHT22;12384;48.112;18.418;2022-12-18T06:51:24;-5.30;94.70
24260;DHT22;12384;48.112;18.418;2022-12-18T06:53:52;-5.30;94.90
24260;DHT22;12384;48.112;18.418;2022-12-18T06:56:20;-5.20;95.20
24260;DHT22;12384;48.112;18.418;2022-12-18T06:58:48;-5.20;95.50
24260;DHT22;12384;48.112;18.418;2022-12-18T07:01:18;-5.10;96.00
24260;DHT22;12384;48.112;18.418;2022-12-18T07:03:51;-5.00;96.90
24260;DHT22;12384;48.112;18.418;2022-12-18T07:06:22;-4.70;98.60
24260;DHT22;12384;48.112;18.418;2022-12-18T07:08:52;-4.30;99.90
24260;DHT22;12384;48.112;18.418;2022-12-18T07:11:21;-3.80;99.90
24260;DHT22;12384;48.112;18.418;2022-12-18T07:13:50;-3.20;99.90
24260;DHT22;12384;48.112;18.418;2022-12-18T07:16:21;-2.60;99.90
24260;DHT22;12384;48.112;18.418;2022-12-18T07:18:52;-2.00;99.90
24260;DHT22;12384;48.112;18.418;2022-12-18T07:21:20;-1.40;99.90
24260;DHT22;12384;48.112;18.418;2022-12-18T07:23:49;-0.80;99.90
24260;DHT22;12384;48.112;18.418;2022-12-18T07:26:20;-0.10;99.90
24260;DHT22;12384;48.112;18.418;2022-12-18T07:28:48;0.50;99.90
24260;DHT22;12384;48.112;18.418;2022-12-18T07:31:20;1.10;99.90
24260;DHT22;12384;48.112;18.418;2022-12-18T07:33:50;1.70;99.90
24260;DHT22;12384;48.112;18.418;2022-12-18T07:36:19;2.30;99.90
24260;DHT22;12384;48.112;18.418;2022-12-18T07:38:47;2.80;99.90
24260;DHT22;12384;48.112;18.418;2022-12-18T07:41:16;3.40;99.90
24260;DHT22;12384;48.112;18.418;2022-12-18T07:43:46;3.90;99.90
24260;DHT22;12384;48.112;18.418;2022-12-18T07:46:15;4.40;99.90
24260;DHT22;12384;48.112;18.418;2022-12-18T07:48:46;4.90;99.90
24260;DHT22;12384;48.112;18.418;2022-12-18T07:51:17;5.40;99.90
24260;DHT22;12384;48.112;18.418;2022-12-18T07:53:45;5.90;99.90
24260;DHT22;12384;48.112;18.418;2022-12-18T07:56:18;6.40;99.90
24260;DHT22;12384;48.112;18.418;2022-12-18T07:58:57;6.80;99.90
24260;DHT22;12384;48.112;18.418;2022-12-18T08:01:26;7.30;96.10
24260;DHT22;12384;48.112;18.418;2022-12-18T08:03:57;7.80;92.60
24260;DHT22;12384;48.112;18.418;2022-12-18T08:06:25;8.30;85.70
24260;DHT22;12384;48.112;18.418;2022-12-18T08:08:55;8.80;78.40
24260;DHT22;12384;48.112;18.418;2022-12-18T08:11:26;9.30;72.60
24260;DHT22;12384;48.112;18.418;2022-12-18T08:13:55;9.70;67.60
24260;DHT22;12384;48.112;18.418;2022-12-18T08:16:24;10.10;66.50
24260;DHT22;12384;48.112;18.418;2022-12-18T08:18:53;10.50;64.50
24260;DHT22;12384;48.112;18.418;2022-12-18T08:21:25;10.80;61.20
24260;DHT22;12384;48.112;18.418;2022-12-18T08:23:57;11.10;62.40
24260;DHT22;12384;48.112;18.418;2022-12-18T08:26:26;11.50;63.10
24260;DHT22;12384;48.112;18.418;2022-12-18T08:28:56;11.90;63.80
24260;DHT22;12384;48.112;18.418;2022-12-18T08:31:26;12.30;63.00
24260;DHT22;12384;48.112;18.418;2022-12-18T08:33:55;12.70;61.90
24260;DHT22;12384;48.112;18.418;2022-12-18T08:36:25;13.00;59.80
24260;DHT22;12384;48.112;18.418;2022-12-18T08:38:54;13.40;58.30
24260;DHT22;12384;48.112;18.418;2022-12-18T08:41:23;13.60;56.80
24260;DHT22;12384;48.112;18.418;2022-12-18T08:43:51;13.90;54.90
24260;DHT22;12384;48.112;18.418;2022-12-18T08:46:38;14.10;54.20
24260;DHT22;12384;48.112;18.418;2022-12-18T08:49:08;14.30;52.50
24260;DHT22;12384;48.112;18.418;2022-12-18T08:51:39;14.60;52.70
24260;DHT22;12384;48.112;18.418;2022-12-18T08:54:10;15.00;52.40
24260;DHT22;12384;48.112;18.418;2022-12-18T08:56:39;15.40;53.20
24260;DHT22;12384;48.112;18.418;2022-12-18T08:59:08;15.60;50.60
24260;DHT22;12384;48.112;18.418;2022-12-18T09:01:45;15.80;50.40
24260;DHT22;12384;48.112;18.418;2022-12-18T09:04:15;15.80;49.50
24260;DHT22;12384;48.112;18.418;2022-12-18T09:06:44;15.70;48.10
24260;DHT22;12384;48.112;18.418;2022-12-18T09:09:13;15.60;47.60
24260;DHT22;12384;48.112;18.418;2022-12-18T09:11:41;15.40;47.10
24260;DHT22;12384;48.112;18.418;2022-12-18T09:14:10;15.30;46.60
24260;DHT22;12384;48.112;18.418;2022-12-18T09:16:38;15.20;46.20
24260;DHT22;12384;48.112;18.418;2022-12-18T09:19:06;15.10;45.60
24260;DHT22;12384;48.112;18.418;2022-12-18T09:21:35;15.10;45.60
24260;DHT22;12384;48.112;18.418;2022-12-18T09:24:14;15.00;44.80
24260;DHT22;12384;48.112;18.418;2022-12-18T09:26:43;15.00;45.00
24260;DHT22;12384;48.112;18.418;2022-12-18T09:29:14;15.00;44.90
24260;DHT22;12384;48.112;18.418;2022-12-18T09:31:45;15.00;44.70
24260;DHT22;12384;48.112;18.418;2022-12-18T09:34:13;15.00;44.10
24260;DHT22;12384;48.112;18.418;2022-12-18T09:36:42;14.90;43.30
24260;DHT22;12384;48.112;18.418;2022-12-18T09:39:10;14.90;43.00
24260;DHT22;12384;48.112;18.418;2022-12-18T09:41:45;14.90;43.20
24260;DHT22;12384;48.112;18.418;2022-12-18T09:44:23;14.90;42.60
24260;DHT22;12384;48.112;18.418;2022-12-18T09:47:02;14.90;42.00
24260;DHT22;12384;48.112;18.418;2022-12-18T09:49:35;15.00;42.10
24260;DHT22;12384;48.112;18.418;2022-12-18T09:52:09;15.00;41.60
24260;DHT22;12384;48.112;18.418;2022-12-18T09:54:40;15.20;42.60
24260;DHT22;12384;48.112;18.418;2022-12-18T09:57:15;15.40;42.10
24260;DHT22;12384;48.112;18.418;2022-12-18T09:59:47;15.50;41.20
24260;DHT22;12384;48.112;18.418;2022-12-18T10:02:20;15.40;39.10
24260;DHT22;12384;48.112;18.418;2022-12-18T10:05:02;15.40;38.50
24260;DHT22;12384;48.112;18.418;2022-12-18T10:07:47;15.50;39.00
24260;DHT22;12384;48.112;18.418;2022-12-18T10:10:26;15.60;39.30
24260;DHT22;12384;48.112;18.418;2022-12-18T10:13:05;15.70;39.20
24260;DHT22;12384;48.112;18.418;2022-12-18T10:15:42;15.70;38.80
24260;DHT22;12384;48.112;18.418;2022-12-18T10:18:23;15.60;36.40
24260;DHT22;12384;48.112;18.418;2022-12-18T10:20:58;15.50;36.90
24260;DHT22;12384;48.112;18.418;2022-12-18T10:23:33;15.50;36.40
24260;DHT22;12384;48.112;18.418;2022-12-18T10:26:11;15.50;36.00
24260;DHT22;12384;48.112;18.418;2022-12-18T10:28:42;15.50;36.70
24260;DHT22;12384;48.112;18.418;2022-12-18T10:31:15;15.50;37.00
24260;DHT22;12384;48.112;18.418;2022-12-18T10:33:45;15.50;36.90
24260;DHT22;12384;48.112;18.418;2022-12-18T10:36:14;15.50;36.30
24260;DHT22;12384;48.112;18.418;2022-12-18T10:38:42;15.60;36.50
24260;DHT22;12384;48.112;18.418;2022-12-18T10:41:25;15.70;35.50
24260;DHT22;12384;48.112;18.418;2022-12-18T10:44:16;15.90;36.00
24260;DHT22;12384;48.112;18.418;2022-12-18T10:46:46;15.90;34.80
24260;DHT22;12384;48.112;18.418;2022-12-18T10:49:22;15.90;35.00
24260;DHT22;12384;48.112;18.418;2022-12-18T10:51:52;15.90;34.80
24260;DHT22;12384;48.112;18.418;2022-12-18T10:54:34;15.90;34.40
24260;DHT22;12384;48.112;18.418;2022-12-18T10:57:17;15.90;34.60
24260;DHT22;12384;48.112;18.418;2022-12-18T10:59:52;16.00;34.10
24260;DHT22;12384;48.112;18.418;2022-12-18T11:02:34;16.10;34.10
24260;DHT22;12384;48.112;18.418;2022-12-18T11:05:23;16.00;33.00
24260;DHT22;12384;48.112;18.418;2022-12-18T11:07:54;15.90;33.00
24260;DHT22;12384;48.112;18.418;2022-12-18T11:10:27;15.80;33.60
24260;DHT22;12384;48.112;18.418;2022-12-18T11:12:57;15.70;33.20
24260;DHT22;12384;48.112;18.418;2022-12-18T11:15:40;15.70;33.00
24260;DHT22;12384;48.112;18.418;2022-12-18T11:18:17;15.60;32.80
24260;DHT22;12384;48.112;18.418;2022-12-18T11:20:52;15.60;32.80
24260;DHT22;12384;48.112;18.418;2022-12-18T11:23:25;15.60;33.40
24260;DHT22;12384;48.112;18.418;2022-12-18T11:25:57;15.60;33.00
24260;DHT22;12384;48.112;18.418;2022-12-18T11:28:29;15.60;33.10
24260;DHT22;12384;48.112;18.418;2022-12-18T11:31:33;15.50;32.70
24260;DHT22;12384;48.112;18.418;2022-12-18T11:34:04;15.30;30.90
24260;DHT22;12384;48.112;18.418;2022-12-18T11:36:55;15.10;32.40
24260;DHT22;12384;48.112;18.418;2022-12-18T11:39:31;14.80;32.60
24260;DHT22;12384;48.112;18.418;2022-12-18T11:42:09;14.70;32.80
24260;DHT22;12384;48.112;18.418;2022-12-18T11:44:45;14.50;32.60
24260;DHT22;12384;48.112;18.418;2022-12-18T11:47:24;14.40;31.90
24260;DHT22;12384;48.112;18.418;2022-12-18T11:49:56;14.20;32.20
24260;DHT22;12384;48.112;18.418;2022-12-18T11:52:34;14.00;31.70
24260;DHT22;12384;48.112;18.418;2022-12-18T11:55:11;13.70;32.40
24260;DHT22;12384;48.112;18.418;2022-12-18T11:57:46;13.50;32.20
24260;DHT22;12384;48.112;18.418;2022-12-18T12:00:20;13.20;33.20
24260;DHT22;12384;48.112;18.418;2022-12-18T12:03:21;13.00;32.80
24260;DHT22;12384;48.112;18.418;2022-12-18T12:06:04;12.70;32.50
24260;DHT22;12384;48.112;18.418;2022-12-18T12:08:41;12.50;32.90
24260;DHT22;12384;48.112;18.418;2022-12-18T12:11:20;12.40;33.50
24260;DHT22;12384;48.112;18.418;2022-12-18T12:14:06;12.30;33.80
24260;DHT22;12384;48.112;18.418;2022-12-18T12:16:43;12.20;33.70
24260;DHT22;12384;48.112;18.418;2022-12-18T12:19:27;12.20;34.40
24260;DHT22;12384;48.112;18.418;2022-12-18T12:22:05;12.20;34.40
24260;DHT22;12384;48.112;18.418;2022-12-18T12:24:44;12.10;34.40
24260;DHT22;12384;48.112;18.418;2022-12-18T12:27:23;12.00;34.40
24260;DHT22;12384;48.112;18.418;2022-12-18T12:30:03;11.80;34.40
24260;DHT22;12384;48.112;18.418;2022-12-18T12:32:53;11.60;34.50
24260;DHT22;12384;48.112;18.418;2022-12-18T12:35:40;11.40;34.80
24260;DHT22;12384;48.112;18.418;2022-12-18T12:38:12;11.30;35.00
24260;DHT22;12384;48.112;18.418;2022-12-18T12:40:46;11.20;35.10
24260;DHT22;12384;48.112;18.418;2022-12-18T12:43:33;11.20;34.90
24260;DHT22;12384;48.112;18.418;2022-12-18T12:46:05;11.30;36.00
24260;DHT22;12384;48.112;18.418;2022-12-18T12:48:41;11.30;36.00
24260;DHT22;12384;48.112;18.418;2022-12-18T12:51:17;11.40;35.80
24260;DHT22;12384;48.112;18.418;2022-12-18T12:53:46;11.60;36.20
24260;DHT22;12384;48.112;18.418;2022-12-18T12:56:19;11.70;36.00
24260;DHT22;12384;48.112;18.418;2022-12-18T12:58:57;11.70;36.00
24260;DHT22;12384;48.112;18.418;2022-12-18T13:01:34;11.70;35.40
24260;DHT22;12384;48.112;18.418;2022-12-18T13:04:15;11.60;35.60
24260;DHT22;12384;48.112;18.418;2022-12-18T13:06:54;11.50;35.40
24260;DHT22;12384;48.112;18.418;2022-12-18T13:09:24;11.40;35.50
24260;DHT22;12384;48.112;18.418;2022-12-18T13:11:52;11.30;35.30
24260;DHT22;12384;48.112;18.418;2022-12-18T13:14:43;11.20;35.20
24260;DHT22;12384;48.112;18.418;2022-12-18T13:17:29;11.30;35.30
24260;DHT22;12384;48.112;18.418;2022-12-18T13:20:10;11.30;34.90
24260;DHT22;12384;48.112;18.418;2022-12-18T13:22:46;11.30;34.70
24260;DHT22;12384;48.112;18.418;2022-12-18T13:25:32;11.40;35.00
24260;DHT22;12384;48.112;18.418;2022-12-18T13:28:05;11.40;34.30
24260;DHT22;12384;48.112;18.418;2022-12-18T13:33:47;11.50;34.30
24260;DHT22;12384;48.112;18.418;2022-12-18T13:36:36;11.60;34.30
24260;DHT22;12384;48.112;18.418;2022-12-18T13:39:35;11.50;34.20
24260;DHT22;12384;48.112;18.418;2022-12-18T13:42:38;11.60;34.40
24260;DHT22;12384;48.112;18.418;2022-12-18T13:45:45;11.60;34.40
24260;DHT22;12384;48.112;18.418;2022-12-18T13:48:22;11.50;34.00
24260;DHT22;12384;48.112;18.418;2022-12-18T13:50:55;11.20;34.00
24260;DHT22;12384;48.112;18.418;2022-12-18T13:53:27;10.90;33.80
24260;DHT22;12384;48.112;18.418;2022-12-18T13:55:58;10.60;34.00
24260;DHT22;12384;48.112;18.418;2022-12-18T13:58:26;10.30;34.20
24260;DHT22;12384;48.112;18.418;2022-12-18T14:00:55;9.90;34.90
24260;DHT22;12384;48.112;18.418;2022-12-18T14:03:26;9.50;35.20
24260;DHT22;12384;48.112;18.418;2022-12-18T14:05:59;9.00;35.50
24260;DHT22;12384;48.112;18.418;2022-12-18T14:08:34;8.50;35.70
24260;DHT22;12384;48.112;18.418;2022-12-18T14:11:06;7.90;35.80
24260;DHT22;12384;48.112;18.418;2022-12-18T14:13:40;7.40;36.10
24260;DHT22;12384;48.112;18.418;2022-12-18T14:16:14;6.90;36.30
24260;DHT22;12384;48.112;18.418;2022-12-18T14:18:45;6.40;36.50
24260;DHT22;12384;48.112;18.418;2022-12-18T14:21:20;5.90;36.80
24260;DHT22;12384;48.112;18.418;2022-12-18T14:24:03;5.40;37.20
24260;DHT22;12384;48.112;18.418;2022-12-18T14:26:33;4.90;38.10
24260;DHT22;12384;48.112;18.418;2022-12-18T14:29:19;4.50;38.00
24260;DHT22;12384;48.112;18.418;2022-12-18T14:32:06;4.10;38.30
24260;DHT22;12384;48.112;18.418;2022-12-18T14:34:43;3.70;39.30
24260;DHT22;12384;48.112;18.418;2022-12-18T14:37:13;3.40;39.20
24260;DHT22;12384;48.112;18.418;2022-12-18T14:39:55;3.10;39.40
24260;DHT22;12384;48.112;18.418;2022-12-18T14:42:27;2.80;39.70
24260;DHT22;12384;48.112;18.418;2022-12-18T14:45:35;2.50;40.10
24260;DHT22;12384;48.112;18.418;2022-12-18T14:48:12;2.20;40.20
24260;DHT22;12384;48.112;18.418;2022-12-18T14:51:01;2.00;40.70
24260;DHT22;12384;48.112;18.418;2022-12-18T14:53:36;1.70;40.80
24260;DHT22;12384;48.112;18.418;2022-12-18T14:56:16;1.50;41.10
24260;DHT22;12384;48.112;18.418;2022-12-18T14:58:52;1.30;41.40
24260;DHT22;12384;48.112;18.418;2022-12-18T15:01:24;1.10;42.20
24260;DHT22;12384;48.112;18.418;2022-12-18T15:03:54;0.90;41.90
24260;DHT22;12384;48.112;18.418;2022-12-18T15:06:35;0.80;42.10
24260;DHT22;12384;48.112;18.418;2022-12-18T15:09:20;0.60;42.40
24260;DHT22;12384;48.112;18.418;2022-12-18T15:11:49;0.40;42.50
24260;DHT22;12384;48.112;18.418;2022-12-18T15:14:40;0.30;42.80
24260;DHT22;12384;48.112;18.418;2022-12-18T15:17:17;0.20;43.10
24260;DHT22;12384;48.112;18.418;2022-12-18T15:19:47;0.00;43.30
24260;DHT22;12384;48.112;18.418;2022-12-18T15:22:19;-0.10;43.50
24260;DHT22;12384;48.112;18.418;2022-12-18T15:24:49;-0.20;43.70
24260;DHT22;12384;48.112;18.418;2022-12-18T15:27:27;-0.30;43.90
24260;DHT22;12384;48.112;18.418;2022-12-18T15:30:19;-0.40;44.10
24260;DHT22;12384;48.112;18.418;2022-12-18T15:32:49;-0.50;44.20
24260;DHT22;12384;48.112;18.418;2022-12-18T15:35:19;-0.60;44.60
24260;DHT22;12384;48.112;18.418;2022-12-18T15:37:48;-0.70;44.60
24260;DHT22;12384;48.112;18.418;2022-12-18T15:40:18;-0.80;44.80
24260;DHT22;12384;48.112;18.418;2022-12-18T15:42:47;-0.90;44.90
24260;DHT22;12384;48.112;18.418;2022-12-18T15:45:35;-1.00;45.10
24260;DHT22;12384;48.112;18.418;2022-12-18T15:48:15;-1.10;45.80
24260;DHT22;12384;48.112;18.418;2022-12-18T15:50:46;-1.10;45.40
24260;DHT22;12384;48.112;18.418;2022-12-18T15:53:14;-1.20;45.50
24260;DHT22;12384;48.112;18.418;2022-12-18T15:55:42;-1.30;45.60
24260;DHT22;12384;48.112;18.418;2022-12-18T15:58:27;-1.40;45.70